Time;durP1;ratioP1;P1;durP2;ratioP2;P2;SDS_P1;SDS_P2;PMS_P1;PMS_P2;Temp;Humidity;BMP_temperature;BMP_pressure;BME280_temperature;BME280_humidity;BME280_pressure;Samples;Min_cycle;Max_cycle;Signal;HPM_P1;HPM_P2
2022/10/17 00:01:06;;;;;;;0.00;0.00;;;10.10;99.90;;;;;;5068468;28;20044;-78
2022/10/17 00:03:33;;;;;;;5.57;2.25;;;10.20;99.90;;;;;;5067333;28;20230;-78
2022/10/17 00:06:05;;;;;;;0.40;0.20;;;10.30;99.90;;;;;;5068673;28;20072;-78
2022/10/17 00:08:31;;;;;;;0.85;0.82;;;10.40;99.90;;;;;;5069268;28;20049;-78
2022/10/17 00:10:59;;;;;;;0.43;0.30;;;10.50;99.90;;;;;;5068999;28;20051;-78
2022/10/17 00:13:25;;;;;;;0.08;0.08;;;10.60;99.90;;;;;;5069602;28;20052;-78
2022/10/17 00:15:51;;;;;;;0.35;0.13;;;10.60;99.90;;;;;;5068817;28;20050;-79
2022/10/17 00:18:16;;;;;;;0.77;0.30;;;10.80;99.90;;;;;;5059383;28;20052;-79
2022/10/17 00:20:42;;;;;;;0.30;0.25;;;10.80;99.90;;;;;;5049621;28;20052;-78
2022/10/17 00:23:08;;;;;;;0.00;0.00;;;10.80;99.90;;;;;;5049073;28;20083;-78
2022/10/17 00:25:33;;;;;;;0.00;0.00;;;10.80;99.90;;;;;;5048837;28;20451;-78
2022/10/17 00:27:59;;;;;;;0.22;0.22;;;10.80;99.90;;;;;;5048651;28;20082;-78
2022/10/17 00:30:25;;;;;;;1.40;1.30;;;10.90;99.90;;;;;;5053507;28;20118;-78
2022/10/17 00:32:50;;;;;;;3.95;1.27;;;11.00;99.90;;;;;;5061056;28;20114;-79
2022/10/17 00:35:16;;;;;;;0.32;0.32;;;11.10;99.90;;;;;;5050379;28;20060;-78
2022/10/17 00:37:42;;;;;;;1.95;0.30;;;11.20;99.90;;;;;;5050680;28;20519;-77
2022/10/17 00:40:08;;;;;;;0.25;0.20;;;11.20;99.90;;;;;;5049972;28;20040;-79
2022/10/17 00:42:34;;;;;;;0.00;0.00;;;11.20;99.90;;;;;;5049260;28;20037;-79
2022/10/17 00:45:05;;;;;;;0.00;0.00;;;11.30;99.90;;;;;;5049672;28;20444;-79
2022/10/17 00:47:32;;;;;;;2.50;0.85;;;11.30;99.90;;;;;;5059659;28;20052;-78
2022/10/17 00:49:58;;;;;;;0.75;0.13;;;11.20;99.90;;;;;;5070002;28;20041;-79
2022/10/17 00:52:27;;;;;;;0.00;0.00;;;11.20;99.90;;;;;;5070061;28;20045;-78
2022/10/17 00:55:10;;;;;;;0.25;0.10;;;11.20;99.90;;;;;;5070079;28;20060;-78
2022/10/17 00:57:37;;;;;;;0.98;0.80;;;11.40;99.90;;;;;;5057206;28;20056;-79
2022/10/17 01:00:07;;;;;;;1.77;0.75;;;11.40;99.90;;;;;;5048828;28;20071;-78
2022/10/17 01:02:33;;;;;;;0.82;0.52;;;11.50;99.90;;;;;;5049436;28;20089;-79
2022/10/17 01:04:59;;;;;;;2.92;1.10;;;11.60;99.90;;;;;;5069743;28;20086;-79
2022/10/17 01:07:27;;;;;;;0.00;0.00;;;11.60;99.90;;;;;;5068847;28;20059;-78
2022/10/17 01:09:53;;;;;;;0.75;0.75;;;11.60;99.90;;;;;;5057836;28;20040;-79
2022/10/17 01:12:25;;;;;;;0.00;0.00;;;11.80;99.90;;;;;;5060637;28;20056;-79
2022/10/17 01:14:50;;;;;;;2.03;1.30;;;11.80;99.90;;;;;;5072251;28;20040;-79
2022/10/17 01:17:39;;;;;;;0.35;0.28;;;11.90;99.90;;;;;;5063546;28;20045;-79
2022/10/17 01:20:15;;;;;;;1.02;0.63;;;12.00;99.90;;;;;;5051638;28;20053;-79
2022/10/17 01:22:40;;;;;;;0.13;0.13;;;12.10;99.90;;;;;;5052299;28;20052;-78
2022/10/17 01:25:25;;;;;;;0.00;0.00;;;12.10;99.90;;;;;;5051856;28;20049;-78
2022/10/17 01:28:08;;;;;;;0.65;0.40;;;12.10;99.90;;;;;;5065642;28;20063;-79
2022/10/17 01:30:55;;;;;;;1.98;1.85;;;12.10;99.90;;;;;;5055440;28;20053;-78
2022/10/17 01:33:26;;;;;;;14.95;1.00;;;12.20;99.90;;;;;;5051551;28;20549;-77
2022/10/17 01:36:13;;;;;;;0.32;0.32;;;12.10;99.90;;;;;;5051931;28;20132;-79
2022/10/17 01:38:56;;;;;;;0.10;0.10;;;12.10;99.90;;;;;;5060836;28;20132;-78
2022/10/17 01:41:47;;;;;;;0.35;0.25;;;12.10;99.90;;;;;;5072292;28;20044;-78
2022/10/17 01:44:22;;;;;;;0.05;0.05;;;12.10;99.90;;;;;;5061359;28;20072;-79
2022/10/17 01:47:00;;;;;;;0.38;0.38;;;12.10;99.90;;;;;;5071709;28;20187;-78
2022/10/17 01:49:30;;;;;;;0.03;0.03;;;12.10;99.90;;;;;;5071866;28;20084;-78
2022/10/17 01:52:00;;;;;;;0.73;0.63;;;12.10;99.90;;;;;;5072612;28;20052;-78
2022/10/17 01:54:39;;;;;;;0.00;0.00;;;12.10;99.90;;;;;;5072586;28;20052;-79
2022/10/17 01:57:09;;;;;;;3.15;0.47;;;12.20;99.90;;;;;;5066790;28;20037;-78
2022/10/17 01:59:45;;;;;;;0.10;0.10;;;12.50;99.90;;;;;;5096490;22;20380;-76
2022/10/17 02:02:13;;;;;;;0.40;0.40;;;12.30;99.90;;;;;;5067702;28;20044;-76
2022/10/17 02:04:40;;;;;;;0.30;0.20;;;11.90;99.90;;;;;;5073947;28;20041;-76
2022/10/17 02:07:11;;;;;;;1.25;0.98;;;11.90;99.90;;;;;;5083510;28;20048;-76
2022/10/17 02:09:37;;;;;;;0.55;0.03;;;11.80;99.90;;;;;;5086669;28;20052;-75
2022/10/17 02:12:15;;;;;;;0.28;0.28;;;11.70;99.90;;;;;;5087693;28;20029;-76
2022/10/17 02:14:59;;;;;;;0.17;0.17;;;11.70;99.90;;;;;;5087989;28;20020;-75
2022/10/17 02:17:42;;;;;;;0.28;0.25;;;11.70;99.90;;;;;;5083132;28;20063;-77
2022/10/17 02:20:19;;;;;;;0.30;0.30;;;11.60;99.90;;;;;;5087409;28;20075;-75
2022/10/17 02:23:02;;;;;;;0.00;0.00;;;11.50;99.90;;;;;;5076879;28;20535;-77
2022/10/17 02:25:47;;;;;;;0.32;0.30;;;11.60;99.90;;;;;;5086252;28;20084;-76
2022/10/17 02:28:49;;;;;;;0.00;0.00;;;11.60;99.90;;;;;;5086355;28;20414;-74
2022/10/17 02:31:19;;;;;;;0.80;0.47;;;11.50;99.90;;;;;;5072848;28;20102;-74
2022/10/17 02:33:55;;;;;;;0.63;0.57;;;11.60;99.90;;;;;;5081079;28;20096;-76
2022/10/17 02:36:25;;;;;;;0.32;0.32;;;11.60;99.90;;;;;;5066868;28;20072;-75
2022/10/17 02:38:53;;;;;;;2.40;0.98;;;11.70;99.90;;;;;;5066719;28;20269;-74
2022/10/17 02:41:21;;;;;;;10.65;0.75;;;11.70;99.90;;;;;;5067411;28;20063;-76
2022/10/17 02:43:48;;;;;;;0.43;0.43;;;11.60;99.90;;;;;;5087000;28;20092;-76
2022/10/17 02:46:19;;;;;;;0.35;0.32;;;11.60;99.90;;;;;;5087252;28;20048;-75
2022/10/17 02:49:16;;;;;;;0.20;0.20;;;11.60;99.90;;;;;;5086453;28;20041;-76
2022/10/17 02:52:01;;;;;;;1.45;1.10;;;11.60;99.90;;;;;;5087951;28;20071;-75
2022/10/17 02:54:42;;;;;;;0.73;0.47;;;11.60;99.90;;;;;;5087289;28;20035;-76
2022/10/17 02:57:10;;;;;;;4.15;0.95;;;12.70;99.90;;;;;;5088159;28;20058;-77
2022/10/17 02:59:37;;;;;;;1.27;0.63;;;11.60;99.90;;;;;;5085909;28;20059;-77
2022/10/17 03:02:04;;;;;;;1.65;0.82;;;11.60;99.90;;;;;;5087637;28;20782;-76
2022/10/17 03:04:30;;;;;;;0.15;0.10;;;11.60;99.90;;;;;;5087649;28;20062;-77
2022/10/17 03:06:56;;;;;;;0.20;0.20;;;11.70;99.90;;;;;;5086971;28;20100;-75
2022/10/17 03:09:21;;;;;;;0.13;0.13;;;11.70;99.90;;;;;;5072877;28;20040;-75
2022/10/17 03:11:47;;;;;;;0.13;0.13;;;11.80;99.90;;;;;;5067317;28;20037;-76
2022/10/17 03:14:13;;;;;;;2.45;1.10;;;11.80;99.90;;;;;;5067013;28;20079;-77
2022/10/17 03:16:38;;;;;;;0.25;0.25;;;11.90;99.90;;;;;;5067443;28;20033;-76
2022/10/17 03:19:04;;;;;;;0.52;0.40;;;12.00;99.90;;;;;;5066423;28;20027;-77
2022/10/17 03:21:30;;;;;;;2.97;1.15;;;12.00;99.90;;;;;;5066969;28;20024;-76
2022/10/17 03:23:55;;;;;;;1.13;1.02;;;11.90;99.90;;;;;;5047947;28;20048;-76
2022/10/17 03:26:21;;;;;;;0.17;0.17;;;12.10;99.90;;;;;;5066958;28;20032;-76
2022/10/17 03:28:46;;;;;;;0.47;0.47;;;12.10;99.90;;;;;;5074366;28;20060;-75
2022/10/17 03:31:14;;;;;;;0.55;0.52;;;12.10;99.90;;;;;;5086136;28;20041;-75
2022/10/17 03:33:40;;;;;;;0.20;0.20;;;12.10;99.90;;;;;;5087205;28;20072;-75
2022/10/17 03:36:08;;;;;;;1.15;0.65;;;12.10;99.90;;;;;;5086686;28;20052;-76
2022/10/17 03:38:34;;;;;;;0.10;0.10;;;12.10;99.90;;;;;;5085556;28;20040;-76
2022/10/17 03:41:00;;;;;;;1.35;0.47;;;12.20;99.90;;;;;;5086566;28;20083;-75
2022/10/17 03:43:26;;;;;;;1.38;0.85;;;12.20;99.90;;;;;;5086199;28;20037;-75
2022/10/17 03:45:51;;;;;;;0.63;0.63;;;12.10;99.90;;;;;;5085866;28;20067;-75
2022/10/17 03:48:17;;;;;;;1.38;1.10;;;12.30;99.90;;;;;;5085068;28;20127;-77
2022/10/17 03:50:42;;;;;;;0.75;0.55;;;12.20;99.90;;;;;;5066135;28;20102;-77
2022/10/17 03:53:08;;;;;;;0.80;0.55;;;12.20;99.90;;;;;;5066021;28;20044;-76
2022/10/17 03:55:34;;;;;;;0.75;0.63;;;12.20;99.90;;;;;;5066688;28;20048;-76
2022/10/17 03:57:59;;;;;;;3.08;1.45;;;12.20;99.90;;;;;;5066451;28;20064;-76
2022/10/17 04:00:25;;;;;;;0.55;0.20;;;12.20;99.90;;;;;;5073453;28;20041;-75
2022/10/17 04:02:50;;;;;;;1.38;0.77;;;12.30;99.90;;;;;;5085654;28;20047;-76
2022/10/17 04:05:16;;;;;;;0.28;0.20;;;12.30;99.90;;;;;;5085280;28;20167;-76
2022/10/17 04:07:42;;;;;;;0.75;0.70;;;12.30;99.90;;;;;;5085938;28;20043;-77
2022/10/17 04:10:08;;;;;;;1.02;0.80;;;12.30;99.90;;;;;;5084543;28;20044;-76
2022/10/17 04:12:33;;;;;;;1.48;1.38;;;12.40;99.90;;;;;;5084450;28;20517;-76
2022/10/17 04:14:59;;;;;;;1.08;0.73;;;12.40;99.90;;;;;;5083639;28;20041;-74
2022/10/17 04:17:25;;;;;;;1.73;0.98;;;12.50;99.90;;;;;;5083880;28;20113;-75
2022/10/17 04:19:50;;;;;;;0.70;0.70;;;12.60;99.90;;;;;;5073814;28;20061;-76
2022/10/17 04:22:16;;;;;;;0.20;0.20;;;12.80;99.90;;;;;;5065635;28;20052;-76
2022/10/17 04:24:41;;;;;;;1.65;1.30;;;12.70;99.90;;;;;;5077442;28;20033;-78
2022/10/17 04:27:07;;;;;;;1.67;1.25;;;12.70;99.90;;;;;;5085387;28;20041;-77
2022/10/17 04:29:33;;;;;;;0.57;0.50;;;12.70;99.90;;;;;;5085245;28;20040;-76
2022/10/17 04:31:59;;;;;;;0.45;0.30;;;12.80;99.90;;;;;;5068534;28;20072;-77
2022/10/17 04:34:24;;;;;;;0.32;0.32;;;12.90;99.90;;;;;;5087180;28;20084;-75
2022/10/17 04:36:50;;;;;;;2.05;0.82;;;12.90;99.90;;;;;;5086777;28;20032;-76
2022/10/17 04:39:16;;;;;;;0.30;0.25;;;13.10;99.90;;;;;;5084574;28;20029;-76
2022/10/17 04:41:42;;;;;;;2.17;1.13;;;13.30;99.90;;;;;;5071994;28;20036;-78
2022/10/17 04:44:09;;;;;;;0.43;0.43;;;13.10;99.90;;;;;;5076977;28;20060;-78
2022/10/17 04:46:35;;;;;;;0.88;0.63;;;13.40;99.90;;;;;;5081720;28;20104;-76
2022/10/17 04:49:00;;;;;;;0.63;0.57;;;13.20;99.90;;;;;;5077506;28;20041;-76
2022/10/17 04:51:26;;;;;;;1.25;1.13;;;13.30;99.90;;;;;;5080856;28;20380;-77
2022/10/17 04:53:52;;;;;;;0.65;0.65;;;13.40;99.90;;;;;;5080264;28;20044;-75
2022/10/17 04:56:20;;;;;;;5.63;1.02;;;13.50;99.90;;;;;;5080136;28;20119;-77
2022/10/17 04:58:47;;;;;;;0.85;0.77;;;13.70;99.90;;;;;;5066431;28;20079;-76
2022/10/17 05:01:16;;;;;;;0.43;0.43;;;13.60;99.90;;;;;;5060756;28;20068;-76
2022/10/17 05:03:42;;;;;;;2.08;1.30;;;14.00;99.90;;;;;;5063149;28;20045;-76
2022/10/17 05:06:28;;;;;;;0.40;0.40;;;13.60;99.90;;;;;;5062510;28;20098;-75
2022/10/17 05:08:54;;;;;;;1.45;1.13;;;13.60;99.90;;;;;;5040515;28;20056;-76
2022/10/17 05:11:28;;;;;;;1.20;0.73;;;13.60;99.90;;;;;;5050179;28;20112;-75
2022/10/17 05:13:58;;;;;;;1.02;0.77;;;13.70;99.90;;;;;;5058233;28;20067;-74
2022/10/17 05:16:25;;;;;;;1.65;1.27;;;13.60;99.90;;;;;;5060858;28;20049;-76
2022/10/17 05:18:53;;;;;;;0.43;0.40;;;14.30;99.90;;;;;;5063005;28;20024;-77
2022/10/17 05:21:19;;;;;;;6.22;1.13;;;13.60;99.90;;;;;;5042219;28;20076;-76
2022/10/17 05:23:45;;;;;;;0.10;0.10;;;13.50;99.90;;;;;;5043269;28;20041;-76
2022/10/17 05:26:11;;;;;;;0.95;0.75;;;13.50;99.90;;;;;;5042174;28;20041;-76
2022/10/17 05:28:37;;;;;;;3.33;1.60;;;13.60;99.90;;;;;;5042587;28;20025;-77
2022/10/17 05:31:04;;;;;;;1.13;0.82;;;13.60;99.90;;;;;;5041289;28;20045;-77
2022/10/17 05:33:30;;;;;;;0.30;0.30;;;13.70;99.90;;;;;;5042912;28;20041;-77
2022/10/17 05:35:56;;;;;;;1.23;1.08;;;13.70;99.90;;;;;;5040810;28;20097;-76
2022/10/17 05:38:22;;;;;;;2.17;0.35;;;13.70;99.90;;;;;;5042879;28;20069;-77
2022/10/17 05:40:48;;;;;;;0.57;0.57;;;14.00;99.90;;;;;;5043130;28;20041;-75
2022/10/17 05:43:13;;;;;;;3.80;0.98;;;13.80;99.90;;;;;;5040603;28;20042;-75
2022/10/17 05:45:40;;;;;;;0.45;0.45;;;13.90;99.90;;;;;;5039978;28;20038;-76
2022/10/17 05:48:05;;;;;;;3.88;0.95;;;13.90;99.90;;;;;;5042274;28;20041;-76
2022/10/17 05:50:31;;;;;;;2.60;1.80;;;13.90;99.90;;;;;;5041610;28;20137;-76
2022/10/17 05:52:57;;;;;;;0.45;0.45;;;13.90;99.90;;;;;;5041482;28;20373;-76
2022/10/17 05:55:22;;;;;;;0.68;0.60;;;13.90;99.90;;;;;;5041680;28;20033;-76
2022/10/17 05:57:49;;;;;;;0.60;0.50;;;13.80;99.90;;;;;;5045953;28;20038;-76
2022/10/17 06:00:15;;;;;;;0.88;0.63;;;13.90;99.90;;;;;;5046128;28;20059;-76
2022/10/17 06:02:41;;;;;;;0.95;0.85;;;13.80;99.90;;;;;;5045895;28;20077;-77
2022/10/17 06:05:07;;;;;;;0.90;0.70;;;13.80;99.90;;;;;;5027155;28;20041;-75
2022/10/17 06:07:34;;;;;;;1.10;1.00;;;13.80;99.90;;;;;;5046424;28;20499;-75
2022/10/17 06:10:00;;;;;;;2.75;0.68;;;13.80;99.90;;;;;;5045346;28;20048;-77
2022/10/17 06:12:26;;;;;;;1.20;0.90;;;13.90;99.90;;;;;;5027733;28;20116;-77
2022/10/17 06:14:51;;;;;;;2.60;1.35;;;14.70;99.90;;;;;;5045177;28;20072;-77
2022/10/17 06:17:17;;;;;;;1.98;1.23;;;13.90;99.90;;;;;;5045950;28;20320;-78
2022/10/17 06:19:43;;;;;;;0.88;0.85;;;13.90;99.90;;;;;;5045244;28;20084;-76
2022/10/17 06:22:09;;;;;;;0.88;0.85;;;13.90;99.90;;;;;;5045467;28;20049;-76
2022/10/17 06:24:34;;;;;;;0.43;0.43;;;14.00;99.90;;;;;;5043560;28;20082;-75
2022/10/17 06:27:00;;;;;;;2.92;1.30;;;14.30;99.90;;;;;;5044896;28;20045;-75
2022/10/17 06:29:26;;;;;;;1.15;0.68;;;14.10;99.90;;;;;;5047797;28;20025;-77
2022/10/17 06:31:51;;;;;;;1.85;1.05;;;14.10;99.90;;;;;;5044816;28;20072;-76
2022/10/17 06:34:17;;;;;;;1.95;0.98;;;14.20;99.90;;;;;;5044964;28;20045;-77
2022/10/17 06:36:43;;;;;;;0.60;0.47;;;14.20;99.90;;;;;;5042879;28;20052;-75
2022/10/17 06:39:09;;;;;;;0.28;0.28;;;14.20;99.90;;;;;;5045704;28;20101;-76
2022/10/17 06:41:34;;;;;;;0.90;0.70;;;14.30;99.90;;;;;;5044786;28;20111;-76
2022/10/17 06:44:00;;;;;;;1.20;1.10;;;14.50;99.90;;;;;;5044107;28;20041;-76
2022/10/17 06:46:28;;;;;;;0.43;0.43;;;14.30;99.90;;;;;;5044135;28;20059;-73
2022/10/17 06:48:54;;;;;;;0.90;0.35;;;14.40;99.90;;;;;;5044184;28;20045;-75
2022/10/17 06:51:20;;;;;;;0.55;0.50;;;14.50;99.90;;;;;;5040464;28;20045;-76
2022/10/17 06:53:46;;;;;;;2.28;0.77;;;14.60;99.90;;;;;;5044601;28;20041;-75
2022/10/17 06:56:11;;;;;;;0.73;0.73;;;14.60;99.90;;;;;;5023634;28;20077;-75
2022/10/17 06:58:38;;;;;;;1.45;1.35;;;14.70;99.90;;;;;;5043691;28;20052;-75
2022/10/17 07:01:10;;;;;;;2.20;1.25;;;14.70;99.90;;;;;;5044994;28;20120;-76
2022/10/17 07:03:36;;;;;;;0.50;0.50;;;14.80;99.90;;;;;;5043632;28;20049;-76
2022/10/17 07:06:03;;;;;;;1.13;0.68;;;14.80;99.90;;;;;;5041918;28;20061;-76
2022/10/17 07:08:29;;;;;;;1.05;0.50;;;14.90;99.90;;;;;;5041951;28;20057;-76
2022/10/17 07:10:56;;;;;;;0.30;0.30;;;15.00;99.90;;;;;;5043570;28;20080;-77
2022/10/17 07:13:22;;;;;;;0.40;0.40;;;15.10;99.90;;;;;;5045697;28;20045;-76
2022/10/17 07:15:48;;;;;;;0.40;0.40;;;15.20;99.90;;;;;;5044668;28;20037;-76
2022/10/17 07:18:14;;;;;;;1.10;0.77;;;15.20;99.90;;;;;;5044916;28;20048;-75
2022/10/17 07:20:40;;;;;;;2.25;1.17;;;15.30;99.90;;;;;;5044452;28;20041;-77
2022/10/17 07:23:06;;;;;;;3.20;1.40;;;15.40;99.90;;;;;;5045997;28;20043;-78
2022/10/17 07:25:32;;;;;;;10.15;2.50;;;15.50;99.90;;;;;;5044910;28;20063;-77
2022/10/17 07:27:58;;;;;;;0.32;0.32;;;15.50;99.90;;;;;;5044528;28;20025;-77
2022/10/17 07:30:24;;;;;;;0.57;0.50;;;15.70;99.90;;;;;;5045878;28;20045;-78
2022/10/17 07:32:53;;;;;;;0.35;0.35;;;15.70;99.90;;;;;;5045669;28;20101;-78
2022/10/17 07:35:19;;;;;;;2.85;1.00;;;15.70;99.90;;;;;;5061420;28;20120;-78
2022/10/17 07:37:44;;;;;;;1.42;1.08;;;15.70;99.90;;;;;;5065248;28;20057;-77
2022/10/17 07:40:10;;;;;;;0.43;0.43;;;15.80;99.90;;;;;;5064393;28;20043;-77
2022/10/17 07:42:36;;;;;;;0.68;0.68;;;15.80;99.90;;;;;;5063757;28;20033;-77
2022/10/17 07:45:02;;;;;;;1.60;0.70;;;16.00;99.90;;;;;;5059011;28;20047;-77
2022/10/17 07:47:29;;;;;;;0.68;0.60;;;16.10;99.90;;;;;;5058015;28;20045;-76
2022/10/17 07:49:55;;;;;;;0.75;0.63;;;16.20;99.90;;;;;;5058083;28;20048;-76
2022/10/17 07:52:21;;;;;;;5.53;2.20;;;16.30;99.90;;;;;;5055193;28;20075;-77
2022/10/17 07:54:47;;;;;;;0.40;0.35;;;16.40;99.90;;;;;;5057103;28;20025;-76
2022/10/17 07:57:13;;;;;;;1.13;0.82;;;16.50;99.90;;;;;;5056547;28;20077;-74
2022/10/17 07:59:38;;;;;;;1.27;0.98;;;16.50;99.90;;;;;;5056732;28;20114;-75
2022/10/17 08:02:06;;;;;;;1.27;1.17;;;16.60;99.90;;;;;;5054636;28;20102;-77
2022/10/17 08:04:33;;;;;;;1.17;0.98;;;16.60;99.90;;;;;;5078534;28;20044;-78
2022/10/17 08:06:59;;;;;;;0.90;0.85;;;16.70;99.90;;;;;;5077716;28;20021;-76
2022/10/17 08:09:25;;;;;;;3.08;1.85;;;16.50;99.90;;;;;;5074684;28;20101;-77
2022/10/17 08:11:50;;;;;;;1.27;0.80;;;16.60;99.90;;;;;;5076036;28;20041;-76
2022/10/17 08:14:21;;;;;;;0.45;0.45;;;16.70;99.90;;;;;;5075391;28;20036;-77
2022/10/17 08:16:47;;;;;;;1.48;0.63;;;16.90;99.90;;;;;;5077001;28;20437;-75
2022/10/17 08:19:12;;;;;;;0.20;0.20;;;17.00;99.90;;;;;;5057557;28;20116;-75
2022/10/17 08:21:38;;;;;;;0.88;0.80;;;17.20;88.40;;;;;;5075669;28;20044;-75
2022/10/17 08:24:04;;;;;;;0.52;0.52;;;17.70;19.50;;;;;;5051768;28;20055;-75
2022/10/17 08:26:29;;;;;;;0.10;0.10;;;17.20;3.20;;;;;;5053180;28;20087;-75
2022/10/17 08:28:55;;;;;;;1.75;0.73;;;17.30;1.00;;;;;;5075026;28;20066;-76
2022/10/17 08:31:21;;;;;;;0.47;0.40;;;17.30;1.00;;;;;;5077874;28;20052;-76
2022/10/17 08:33:48;;;;;;;1.33;1.23;;;17.30;1.00;;;;;;5076132;28;20040;-73
2022/10/17 08:36:16;;;;;;;0.75;0.75;;;17.40;1.00;;;;;;5076647;28;20078;-76
2022/10/17 08:38:42;;;;;;;1.17;0.68;;;17.40;1.00;;;;;;5057990;28;20041;-74
2022/10/17 08:41:45;;;;;;;4.07;1.48;;;17.40;1.00;;;;;;5022137;28;20056;-77
2022/10/17 08:44:17;;;;;;;0.90;0.82;;;17.40;1.00;;;;;;5069312;28;20049;-75
2022/10/17 08:46:46;;;;;;;1.60;0.68;;;17.40;1.00;;;;;;5061446;28;20045;-77
2022/10/17 08:49:24;;;;;;;0.70;0.57;;;17.40;1.00;;;;;;5055192;28;20049;-76
2022/10/17 08:51:57;;;;;;;1.35;1.25;;;17.40;1.00;;;;;;5059097;28;20045;-79
2022/10/17 08:54:44;;;;;;;1.33;0.82;;;17.50;1.00;;;;;;5057946;28;20127;-77
2022/10/17 08:57:12;;;;;;;3.25;1.58;;;17.50;99.90;;;;;;5051050;28;20041;-77
2022/10/17 08:59:38;;;;;;;1.08;0.75;;;17.60;1.00;;;;;;5057829;28;20061;-75
2022/10/17 09:02:25;;;;;;;0.60;0.52;;;17.50;1.00;;;;;;5060764;28;20052;-78
2022/10/17 09:05:00;;;;;;;0.30;0.30;;;17.50;1.00;;;;;;5026212;28;20056;-77
2022/10/17 09:08:03;;;;;;;0.70;0.50;;;17.50;1.00;;;;;;5042587;28;20045;-76
2022/10/17 09:10:40;;;;;;;0.43;0.43;;;17.50;1.00;;;;;;5054310;28;20091;-76
2022/10/17 09:13:08;;;;;;;1.65;0.68;;;17.70;1.00;;;;;;5059301;28;20073;-75
2022/10/17 09:16:17;;;;;;;0.60;0.35;;;17.70;1.00;;;;;;5059109;28;20955;-78
2022/10/17 09:18:52;;;;;;;1.92;1.75;;;17.80;99.90;;;;;;5051375;28;20314;-77
2022/10/17 09:21:45;;;;;;;0.10;0.10;;;17.80;99.90;;;;;;5055387;28;20817;-76
2022/10/17 09:24:33;;;;;;;0.93;0.77;;;17.80;99.90;;;;;;5057714;28;20049;-75
2022/10/17 09:26:59;;;;;;;0.05;0.05;;;17.70;99.90;;;;;;5056128;28;20202;-76
2022/10/17 09:29:26;;;;;;;1.00;0.70;;;17.90;99.90;;;;;;5056290;28;20044;-77
2022/10/17 09:32:03;;;;;;;1.30;1.20;;;17.70;99.90;;;;;;5062453;28;20079;-77
2022/10/17 09:34:31;;;;;;;4.55;1.20;;;17.60;99.90;;;;;;5043381;28;20106;-76
2022/10/17 09:37:01;;;;;;;0.65;0.32;;;17.60;99.90;;;;;;5063922;28;20041;-78
2022/10/17 09:39:30;;;;;;;0.30;0.30;;;17.60;99.90;;;;;;5064161;28;20087;-75
2022/10/17 09:41:59;;;;;;;2.13;1.35;;;17.60;99.90;;;;;;5063772;28;20068;-76
2022/10/17 09:44:33;;;;;;;1.13;0.98;;;17.50;1.00;;;;;;5064490;28;20025;-76
2022/10/17 09:47:26;;;;;;;2.83;1.48;;;17.40;1.00;;;;;;5081862;28;20045;-76
2022/10/17 09:49:52;;;;;;;0.55;0.55;;;17.30;1.00;;;;;;5067682;28;20132;-77
2022/10/17 09:52:35;;;;;;;1.15;0.45;;;17.20;64.20;;;;;;5081783;28;20063;-77
2022/10/17 09:55:02;;;;;;;2.72;1.10;;;17.00;99.90;;;;;;5082917;28;20058;-80
2022/10/17 09:57:48;;;;;;;3.92;0.90;;;17.00;99.90;;;;;;5086219;28;20072;-74
2022/10/17 10:00:24;;;;;;;3.00;1.60;;;16.90;99.90;;;;;;5087132;28;20052;-79
2022/10/17 10:02:50;;;;;;;1.52;1.33;;;16.80;99.90;;;;;;5086708;28;20503;-78
2022/10/17 10:05:18;;;;;;;3.65;1.95;;;16.70;99.90;;;;;;5068086;28;20045;-77
2022/10/17 10:08:19;;;;;;;0.20;0.20;;;16.70;99.90;;;;;;5085824;28;20127;-79
2022/10/17 10:10:45;;;;;;;1.17;0.77;;;16.60;99.90;;;;;;5068937;28;20055;-77
2022/10/17 10:13:14;;;;;;;0.68;0.60;;;16.40;99.90;;;;;;5059985;28;20045;-78
2022/10/17 10:15:40;;;;;;;1.02;0.95;;;16.60;99.90;;;;;;5054052;28;20084;-79
2022/10/17 10:18:27;;;;;;;0.90;0.68;;;16.50;99.90;;;;;;5055528;28;20060;-77
2022/10/17 10:21:03;;;;;;;0.20;0.15;;;16.20;99.90;;;;;;5057373;28;20055;-79
2022/10/17 10:23:29;;;;;;;2.17;1.38;;;16.10;99.90;;;;;;5052198;28;20073;-78
2022/10/17 10:26:00;;;;;;;0.10;0.08;;;16.20;99.90;;;;;;5060651;28;20226;-79
2022/10/17 10:28:29;;;;;;;0.15;0.15;;;16.20;99.90;;;;;;5064856;28;20063;-80
2022/10/17 10:30:59;;;;;;;0.82;0.73;;;16.20;99.90;;;;;;5067236;28;20100;-77
2022/10/17 10:33:28;;;;;;;12.73;2.88;;;16.20;99.90;;;;;;5067859;28;20071;-80
2022/10/17 10:36:06;;;;;;;1.55;0.57;;;16.20;99.90;;;;;;5067005;28;20128;-78
2022/10/17 10:38:33;;;;;;;0.70;0.43;;;16.20;99.90;;;;;;5067377;28;20068;-80
2022/10/17 10:41:08;;;;;;;0.25;0.25;;;16.20;99.90;;;;;;5070176;28;20041;-81
2022/10/17 10:43:44;;;;;;;0.43;0.43;;;16.20;99.90;;;;;;5068705;28;20051;-79
2022/10/17 10:46:30;;;;;;;0.52;0.50;;;16.20;99.90;;;;;;5069493;28;20543;-78
2022/10/17 10:49:00;;;;;;;1.23;0.68;;;16.20;99.90;;;;;;5069931;28;20067;-79
2022/10/17 10:51:46;;;;;;;1.10;0.63;;;16.20;99.90;;;;;;5068782;28;20178;-79
2022/10/17 10:54:20;;;;;;;2.13;0.98;;;16.20;99.90;;;;;;5065921;28;20043;-78
2022/10/17 10:56:49;;;;;;;0.70;0.68;;;16.10;99.90;;;;;;5066146;28;20059;-79
2022/10/17 10:59:51;;;;;;;0.50;0.50;;;16.10;99.90;;;;;;5044159;28;20076;-79
2022/10/17 11:02:35;;;;;;;0.77;0.60;;;16.10;99.90;;;;;;5043354;28;20037;-77
2022/10/17 11:05:33;;;;;;;1.45;0.80;;;16.10;99.90;;;;;;5043246;28;20060;-77
2022/10/17 11:08:15;;;;;;;1.35;0.93;;;16.20;99.90;;;;;;5030738;28;20071;-77
2022/10/17 11:11:02;;;;;;;0.75;0.75;;;16.20;99.90;;;;;;5035644;28;20049;-76
2022/10/17 11:13:38;;;;;;;0.13;0.10;;;16.20;99.90;;;;;;5033586;28;20053;-76
2022/10/17 11:16:20;;;;;;;0.10;0.10;;;16.30;99.90;;;;;;5039796;28;20126;-77
2022/10/17 11:19:07;;;;;;;7.38;0.65;;;16.40;99.90;;;;;;5054734;28;20102;-76
2022/10/17 11:21:52;;;;;;;2.60;1.45;;;16.50;99.90;;;;;;5053128;28;20484;-77
2022/10/17 11:24:25;;;;;;;0.98;0.88;;;16.50;99.90;;;;;;5036907;28;20052;-77
2022/10/17 11:27:03;;;;;;;0.32;0.32;;;16.50;99.90;;;;;;5037561;28;20220;-77
2022/10/17 11:29:32;;;;;;;0.82;0.73;;;16.60;99.90;;;;;;5037647;28;20053;-77
2022/10/17 11:32:06;;;;;;;1.80;0.35;;;16.50;99.90;;;;;;5041305;28;20055;-77
2022/10/17 11:34:40;;;;;;;1.27;0.98;;;16.50;99.90;;;;;;5060220;28;20398;-77
2022/10/17 11:37:20;;;;;;;1.77;0.90;;;16.40;99.90;;;;;;5060399;28;20060;-78
2022/10/17 11:40:01;;;;;;;1.15;1.05;;;16.40;99.90;;;;;;5061115;28;20101;-77
2022/10/17 11:42:32;;;;;;;0.45;0.15;;;16.30;99.90;;;;;;5051956;28;20072;-78
2022/10/17 11:45:04;;;;;;;0.10;0.10;;;16.60;99.90;;;;;;5047452;28;20029;-82
2022/10/17 11:47:33;;;;;;;0.93;0.55;;;16.40;99.90;;;;;;5046900;28;20026;-80
2022/10/17 11:50:15;;;;;;;0.85;0.73;;;16.40;99.90;;;;;;5048869;28;20025;-80
2022/10/17 11:52:45;;;;;;;0.00;0.00;;;16.40;99.90;;;;;;5046224;28;20079;-78
2022/10/17 11:55:20;;;;;;;1.08;0.82;;;16.50;99.90;;;;;;5045764;28;20029;-79
2022/10/17 11:58:00;;;;;;;0.52;0.52;;;16.50;99.90;;;;;;5043055;28;20037;-78
2022/10/17 12:00:49;;;;;;;1.17;1.08;;;16.40;99.90;;;;;;5061774;28;20056;-78
2022/10/17 12:03:33;;;;;;;1.25;0.68;;;16.40;99.90;;;;;;5063419;28;20063;-80
2022/10/17 12:06:07;;;;;;;1.10;1.00;;;16.50;99.90;;;;;;5055941;28;20122;-77
2022/10/17 12:08:52;;;;;;;0.85;0.63;;;16.60;99.90;;;;;;5058118;28;20499;-77
2022/10/17 12:11:55;;;;;;;1.90;1.42;;;16.80;99.90;;;;;;5056400;28;20067;-77
2022/10/17 12:14:34;;;;;;;0.28;0.28;;;17.00;99.90;;;;;;5038418;28;20294;-78
2022/10/17 12:17:01;;;;;;;3.30;1.65;;;17.10;99.90;;;;;;5038293;28;20060;-77
2022/10/17 12:19:34;;;;;;;0.52;0.45;;;17.20;99.90;;;;;;5019170;28;20105;-75
2022/10/17 12:22:11;;;;;;;1.05;0.70;;;17.10;99.90;;;;;;5049431;28;20040;-79
2022/10/17 12:24:44;;;;;;;0.90;0.43;;;17.10;99.90;;;;;;5079827;28;20045;-77
2022/10/17 12:27:36;;;;;;;0.50;0.40;;;17.10;99.90;;;;;;5080056;28;20040;-77
2022/10/17 12:30:18;;;;;;;0.88;0.77;;;17.20;99.90;;;;;;5078204;28;20067;-77
2022/10/17 12:33:01;;;;;;;0.80;0.73;;;17.20;99.90;;;;;;5064418;28;20108;-78
2022/10/17 12:35:28;;;;;;;1.13;0.93;;;17.20;99.90;;;;;;5059911;28;20053;-77
2022/10/17 12:37:54;;;;;;;1.85;1.20;;;17.00;99.90;;;;;;5056884;28;20037;-77
2022/10/17 12:40:34;;;;;;;2.30;0.63;;;16.90;99.90;;;;;;5058145;28;20044;-78
2022/10/17 12:43:12;;;;;;;0.17;0.17;;;17.10;99.90;;;;;;5057620;28;20496;-77
2022/10/17 12:45:57;;;;;;;0.28;0.28;;;16.80;99.90;;;;;;5057982;28;20053;-76
2022/10/17 12:48:59;;;;;;;0.22;0.20;;;16.70;99.90;;;;;;5056333;28;20041;-76
2022/10/17 12:51:26;;;;;;;1.23;0.73;;;16.60;99.90;;;;;;5028201;28;20111;-76
2022/10/17 12:54:07;;;;;;;1.35;0.65;;;17.00;99.90;;;;;;5058491;28;20068;-77
2022/10/17 12:56:46;;;;;;;0.40;0.40;;;16.50;99.90;;;;;;5023944;28;20048;-78
2022/10/17 12:59:21;;;;;;;1.55;0.60;;;16.50;99.90;;;;;;5060831;28;20053;-76
2022/10/17 13:01:59;;;;;;;1.33;0.35;;;16.50;99.90;;;;;;5059760;28;20083;-78
2022/10/17 13:04:27;;;;;;;2.85;1.60;;;16.50;99.90;;;;;;5044447;28;20411;-77
2022/10/17 13:06:56;;;;;;;0.30;0.30;;;16.50;99.90;;;;;;5063665;28;20071;-77
2022/10/17 13:09:34;;;;;;;0.75;0.70;;;16.50;99.90;;;;;;5062191;28;20049;-77